Dover Air Force Base
KDOV : now visible

Airfield :











YOU CAN JOIN US ON...

 
LOGIN :

Register | Disclaimer

   EN    FR    IT 

 









Legend :    VFR   Marginal VFR   IFR   Intensive IFR   Very Intensive IFR
Visi :
Ceiling :
>= 8 km
>= 3000ft
5 to 8 km
1000 to 3000 ft
1500m to 5 km
500 to 1000 ft
800 to 1500m
200 to 500 ft
< 800m
< 200 ft
Symbols :   Thunderstorms  Fog  Heavy snow  Heavy precipitations  Wind > 20 kt






- Airport Elevation : 24 ft


KDOV - Dover Air Force Base

CURRENT METAR :
  • 110311Z AUTO 17006KT 10SM FEW009 13/13 A2975 RMK AO2 SLP078 $

EXPIRED METARs :
  • 110256Z AUTO 11003KT 10SM CLR 13/13 A2974 RMK AO2 SLP075 T01300130 57016 $
  • 110156Z AUTO 15004KT 10SM CLR 14/14 A2978 RMK AO2 SLP088 T01390139 $
  • 110056Z AUTO 12005KT 10SM CLR 13/13 A2978 RMK AO2 SLP088 T01310131 $

TAF TAF KDOV
Valid from the 11 at 00:00 until the 12 at 06:00 UTC


110000Z 1100/1206 14009KT 9999 SCT100 QNH2981INS
BECMG 1102/1103 14006KT 4800 BR OVC010 QNH2970INS
TEMPO 1103/1107 3200 BR OVC006
BECMG 1106/1107 12006KT 3200 -RA BR OVC010 QNH2964INS
TEMPO 1107/1111 OVC006
BECMG 1110/1111 11009KT 4800 -RA BR OVC010 QNH2956INS
TEMPO 1113/1116 11012G20KT 3200 -TSRA OVC006CB
BECMG 1116/1117 11009KT 9999 NSW SCT010 BKN020 QNH2950INS
BECMG 1202/1203 11009KT 4800 -SHRA OVC010 QNH2954INS
TEMPO 1203/1206 11015G25KT 3200 -TSRA OVC006CB TX22/1118Z TN13/1104Z
KZDC FIR / North America



MET'MAP, your aeronautical weather chart ! - Copyright ORBIFLY December 2007 - Disclaimer

ORBIFLY MET'MAP TEAM :

Programming & Development : Alexandra Zaïnal
Concept & original design : Baudouin d'Aumeries
Assistance for programming : Marc-Olivier Méhu
Technical & hardware support : Manuel Goepfert

Contact : metmap@orbifly.com




SOURCES & CREDITS :

   NOAA       Earth
Advisory